AirNav   Air Wisconsin Up To $57,000 Bonus
 
 1384 users online  

8PS1 Bethlehem Steel Plant Heliport
Bethlehem, Pennsylvania, USA

GOING TO BETHLEHEM?


FAA INFORMATION EFFECTIVE 05 DECEMBER 2019

Location

FAA Identifier: 8PS1
Lat/Long: 40-36-45.3550N 075-20-48.6450W
40-36.755917N 075-20.810750W
40.6125986,-75.3468458
(estimated)
Elevation: 300 ft. / 91 m (estimated)
Variation: 12W (1985)
Time zone: UTC -5 (UTC -4 during Daylight Saving Time)
Zip code: 18015

Heliport Operations

Heliport use: Private use. Permission required prior to landing
Activation date: 01/1988
Control tower: no
ARTCC: NEW YORK CENTER
FSS: WILLIAMSPORT FLIGHT SERVICE STATION
Attendance: CONTINUOUS
Wind indicator: lighted
Segmented circle: no
Lights: SS-SR

Heliport Communications

WX ASOS at ABE (5 nm NW): PHONE 610-266-3579
WX AWOS-3 at XLL (7 nm W): 127.875 (610-231-3111)
WX AWOS-3 at UKT (11 nm S): 119.475 (215-538-7610)
WX AWOS-3 at CKZ (14 nm S): 126.325 (215-257-7291)
WX ASOS at DYL (20 nm SE): 118.875 (215-345-0392)

Nearby radio navigation aids

VOR radial/distance  VOR name  Freq  Var
FJCr154/8.4ALLENTOWN VORTAC117.5010W
ETXr092/15.5EAST TEXAS VOR/DME110.2009W
PTWr032/25.4POTTSTOWN VORTAC116.5009W
BWZr256/26.4BROADWAY VOR/DME114.2011W
SBJr284/27.6SOLBERG VOR/DME112.9010W
ARDr327/29.4YARDLEY VOR/DME108.2010W
STWr234/31.6STILLWATER VOR/DME109.6011W

 
NDB name  Hdg/Dist  Freq  Var  ID
AMBLER006/29.327512WING .. -. --.

Heliport Services

Runway Information

Helipad H1

Dimensions: 65 x 65 ft. / 20 x 20 m
Surface: asphalt
Runway edge lights: PERI
Latitude: 40-36.755917N
Longitude: 075-20.810750W
Elevation: 300.0 ft.
Traffic pattern: leftleft

Heliport Ownership and Management from official FAA records

Ownership: Privately-owned
Owner: BETHLEHEM STEEL CORP
701 E. 3RD ST
BETHLEHEM, PA 18016
Phone 215-694-4506
Manager: JM ZAIA; ATTN: S A GAWLIK
BETHLEHEM STEEL, RM 349 SPDO
BETHLEHEM, PA 18016
Phone 215-694-7654

Additional Remarks

FOR CD CTC ALLENTOWN APCH AT 800-728-6322.

Instrument Procedures

There are no published instrument procedures at 8PS1.

Some nearby airports with instrument procedures:

KABE - Lehigh Valley International Airport (5 nm NW)
KXLL - Allentown Queen City Municipal Airport (7 nm W)
N43 - Braden Airpark (9 nm NE)
KUKT - Quakertown Airport (11 nm S)
KCKZ - Pennridge Airport (14 nm S)
N85 - Alexandria Airport (15 nm E)
N40 - Sky Manor Airport (17 nm E)
KDYL - Doylestown Airport (20 nm SE)
 
Loc | Ops | Rwys | IFR | FBO | Links
Com | Nav | Svcs | Stats | Notes
Area around 8PS1 (Bethlehem Steel Plant Heliport)
 
Road maps at: MapQuest Bing Google
 
Aerial photo
No photo
 
Sectional chart

 
Airport distance calculator
Flying to Bethlehem Steel Plant Heliport? Find the distance to fly.

From to 8PS1

Sunrise and sunset
Times for 05-Dec-2019
 Local
(UTC-5)
 Zulu
(UTC)
Morning civil twilight06:4011:40
Sunrise07:1112:11
Sunset16:3321:33
Evening civil twilight17:0422:04

Current date and time
Zulu (UTC)  05-Dec-2019 18:00:35
Local (UTC-5)  05-Dec-2019 13:00:35
 
METAR
KABE 
5nm NW 
051751Z 28010G22KT 10SM SCT048 BKN060 OVC070 05/M06 A2984 RMK AO2 PK WND 30026/1725 SLP106 60000 T00501056 10061 20033 50006
KXLL 
7nm W 
051735Z AUTO 30012G19KT 10SM SCT055 SCT070 05/M03 A2986 RMK AO2
KUKT 
11nm S 
051755Z AUTO 27014G20KT 240V310 10SM FEW048 SCT060 SCT120 05/M06 A2984 RMK A01
KCKZ 
14nm S 
051755Z AUTO 30016G29KT 260V330 10SM FEW050 SCT070 04/M06 A2984 RMK AO2
KDYL 
20nm SE 
051754Z AUTO 29015G26KT 10SM BKN065 06/M06 A2982 RMK AO2 PK WND 30032/1701 SLP104 T00561061 10067 20022 51002
TAF
KABE 
5nm NW 
051723Z 0518/0618 30015G24KT P6SM BKN050 FM052300 29006KT P6SM SCT050 FM060900 VRB02KT P6SM BKN100 FM061400 20005KT P6SM BKN050
NOTAMs
Click for the latest NOTAMs
NOTAMs are issued by the DoD/FAA and will open in a separate window not controlled by AirNav.

 

 
 

Would you like to see your business listed on this page?

 If your business provides an interesting product or service to pilots, flight crews, aircraft, or users of the Bethlehem Steel Plant Heliport, you should consider listing it here.  To start the listing process, click on the button below
 
Add a business
 

Other Pages about Bethlehem Steel Plant Heliport

Update a link
 
Copyright © AirNav, LLC. All rights reserved. Privacy Policy  Contact